Time;durP1;ratioP1;P1;durP2;ratioP2;P2;SDS_P1;SDS_P2;PMS_P1;PMS_P2;Temp;Humidity;BMP_temperature;BMP_pressure;BME280_temperature;BME280_humidity;BME280_pressure;Samples;Min_cycle;Max_cycle;Signal;HPM_P1;HPM_P2
2022/08/15 00:00:44;;;;;;;2.60;2.40;;;27.90;44.50;;;;;;5025200;28;20033;-59
2022/08/15 00:03:35;;;;;;;2.50;2.30;;;27.90;43.90;;;;;;5021466;28;20108;-55
2022/08/15 00:06:05;;;;;;;2.33;2.13;;;27.90;43.80;;;;;;5019503;28;20037;-59
2022/08/15 00:08:33;;;;;;;2.80;2.53;;;27.90;43.80;;;;;;5023684;28;20030;-58
2022/08/15 00:11:09;;;;;;;3.03;2.47;;;27.90;43.80;;;;;;5027274;28;20073;-57
2022/08/15 00:13:37;;;;;;;3.15;2.65;;;27.90;43.80;;;;;;5026795;28;20056;-55
2022/08/15 00:16:04;;;;;;;2.65;2.45;;;27.90;43.80;;;;;;5025635;28;20115;-56
2022/08/15 00:18:30;;;;;;;3.85;2.50;;;27.90;43.80;;;;;;5027319;28;20394;-57
2022/08/15 00:20:56;;;;;;;2.83;2.60;;;27.90;43.80;;;;;;5026682;28;20021;-57
2022/08/15 00:23:24;;;;;;;2.90;2.35;;;27.90;43.80;;;;;;5027448;28;20409;-59
2022/08/15 00:25:54;;;;;;;2.67;2.47;;;27.90;43.80;;;;;;5024837;28;20076;-60
2022/08/15 00:28:20;;;;;;;3.03;2.72;;;28.00;43.90;;;;;;5026832;28;20045;-55
2022/08/15 00:30:46;;;;;;;3.15;2.30;;;28.00;44.00;;;;;;5027074;28;20021;-59
2022/08/15 00:33:14;;;;;;;2.97;2.65;;;28.00;43.80;;;;;;5026608;28;20348;-58
2022/08/15 00:35:41;;;;;;;2.38;2.17;;;28.00;43.90;;;;;;5022909;28;20041;-58
2022/08/15 00:38:12;;;;;;;2.83;2.60;;;28.00;43.90;;;;;;5025820;28;20025;-56
2022/08/15 00:44:07;;;;;;;4.35;2.55;;;27.90;43.80;;;;;;4975878;28;20046;-59
2022/08/15 00:46:34;;;;;;;2.90;2.70;;;28.00;43.90;;;;;;5024927;28;20103;-55
2022/08/15 00:49:00;;;;;;;2.58;2.38;;;28.00;43.90;;;;;;5029517;28;20029;-58
2022/08/15 00:51:42;;;;;;;2.65;2.45;;;28.00;43.90;;;;;;5027488;28;20592;-57
2022/08/15 00:54:15;;;;;;;2.60;2.40;;;28.00;43.90;;;;;;5028889;28;20042;-61
2022/08/15 00:56:51;;;;;;;2.78;2.58;;;28.00;44.00;;;;;;5027009;28;20029;-60
2022/08/15 00:59:23;;;;;;;2.60;2.40;;;28.00;44.00;;;;;;5027689;28;20132;-56
2022/08/15 01:01:50;;;;;;;3.53;2.88;;;28.00;43.90;;;;;;5030057;28;20040;-52
2022/08/15 01:04:17;;;;;;;2.85;2.65;;;27.90;43.90;;;;;;5027196;28;20045;-57
2022/08/15 01:06:46;;;;;;;2.50;2.30;;;28.00;43.90;;;;;;5028191;28;20461;-56
2022/08/15 01:09:13;;;;;;;2.80;2.60;;;28.00;44.00;;;;;;5028526;28;20352;-54
2022/08/15 01:11:54;;;;;;;2.58;2.38;;;28.00;44.00;;;;;;5029352;28;20449;-56
2022/08/15 01:14:21;;;;;;;2.65;2.45;;;27.90;44.00;;;;;;5022870;28;20049;-58
2022/08/15 01:16:47;;;;;;;3.90;3.20;;;28.00;44.10;;;;;;5024956;28;20029;-55
2022/08/15 01:19:24;;;;;;;3.28;2.50;;;27.90;44.00;;;;;;5027488;28;20037;-60
2022/08/15 01:21:50;;;;;;;4.53;2.75;;;27.90;44.00;;;;;;5026555;28;20483;-55
2022/08/15 01:24:24;;;;;;;2.92;2.63;;;27.90;44.10;;;;;;5025892;28;20060;-55
2022/08/15 01:26:51;;;;;;;2.80;2.60;;;27.90;44.10;;;;;;5026544;28;20124;-54
2022/08/15 01:29:18;;;;;;;3.03;2.67;;;28.00;44.20;;;;;;5041205;28;20036;-56
2022/08/15 01:31:45;;;;;;;3.10;2.80;;;27.90;44.10;;;;;;5026404;28;20353;-58
2022/08/15 01:34:11;;;;;;;2.70;2.50;;;27.90;44.20;;;;;;5045287;28;20026;-59
2022/08/15 01:36:37;;;;;;;3.15;2.85;;;28.00;44.30;;;;;;5026870;28;20045;-57
2022/08/15 01:39:16;;;;;;;2.72;2.45;;;27.90;44.20;;;;;;5027998;28;20424;-52
2022/08/15 01:42:08;;;;;;;2.65;2.45;;;28.00;44.30;;;;;;5028815;28;20326;-54
2022/08/15 01:45:02;;;;;;;2.58;2.30;;;27.90;44.30;;;;;;5027740;28;20356;-55
2022/08/15 01:47:33;;;;;;;;;;;27.90;44.30;;;;;;5028141;28;20044;-58
2022/08/15 01:50:09;;;;;;;2.67;2.47;;;27.90;44.30;;;;;;5027885;28;20348;-59
2022/08/15 01:52:48;;;;;;;3.05;2.65;;;27.90;44.40;;;;;;5010987;28;20104;-57
2022/08/15 01:55:16;;;;;;;2.70;2.50;;;27.90;44.40;;;;;;5029538;28;20087;-56
2022/08/15 01:57:43;;;;;;;2.42;2.22;;;27.90;44.40;;;;;;5024688;28;20057;-53
2022/08/15 02:00:11;;;;;;;2.95;2.65;;;27.90;44.40;;;;;;5026296;28;20071;-55
2022/08/15 02:02:39;;;;;;;2.80;2.60;;;27.90;44.40;;;;;;5029234;28;20033;-58
2022/08/15 02:05:05;;;;;;;2.75;2.40;;;27.90;44.40;;;;;;5028288;28;20072;-54
2022/08/15 02:07:32;;;;;;;2.72;2.53;;;27.90;44.40;;;;;;5027072;28;20045;-56
2022/08/15 02:09:59;;;;;;;3.28;2.90;;;27.90;44.50;;;;;;5026351;28;20029;-53
2022/08/15 02:12:36;;;;;;;3.70;2.67;;;27.90;44.50;;;;;;5023582;28;20025;-58
2022/08/15 02:15:08;;;;;;;2.83;2.58;;;27.90;44.50;;;;;;5027803;28;20095;-55
2022/08/15 02:17:35;;;;;;;2.95;2.70;;;27.90;44.50;;;;;;5026471;28;20022;-53
2022/08/15 02:20:04;;;;;;;3.20;2.90;;;27.90;44.50;;;;;;5026390;28;20038;-56
2022/08/15 02:22:30;;;;;;;2.85;2.63;;;27.90;44.60;;;;;;5029060;28;20036;-54
2022/08/15 02:24:58;;;;;;;2.60;2.40;;;27.90;44.60;;;;;;5026699;28;20444;-57
2022/08/15 02:27:26;;;;;;;2.70;2.50;;;27.90;44.60;;;;;;5028068;28;20144;-59
2022/08/15 02:29:52;;;;;;;2.80;2.60;;;27.90;44.60;;;;;;5027792;28;20033;-54
2022/08/15 02:32:18;;;;;;;3.25;2.97;;;27.90;44.60;;;;;;5028043;28;20346;-54
2022/08/15 02:34:47;;;;;;;2.90;2.60;;;27.90;44.70;;;;;;5012265;28;20352;-57
2022/08/15 02:37:18;;;;;;;3.35;3.05;;;27.90;44.70;;;;;;5025795;28;20075;-58
2022/08/15 02:39:51;;;;;;;3.30;2.78;;;27.90;44.70;;;;;;5024933;28;20112;-55
2022/08/15 02:42:17;;;;;;;3.45;2.55;;;27.90;44.70;;;;;;5026824;28;20044;-56
2022/08/15 02:44:44;;;;;;;3.00;2.70;;;27.90;44.80;;;;;;5028310;28;20107;-56
2022/08/15 02:47:14;;;;;;;3.25;2.95;;;27.80;44.70;;;;;;5025489;28;20421;-54
2022/08/15 02:49:43;;;;;;;3.15;2.85;;;27.90;44.90;;;;;;5026994;28;20037;-53
2022/08/15 02:52:11;;;;;;;2.85;2.40;;;27.80;44.80;;;;;;5028836;28;20397;-58
2022/08/15 02:54:37;;;;;;;3.15;2.85;;;27.80;44.80;;;;;;5025464;28;20061;-54
2022/08/15 02:57:04;;;;;;;3.17;2.88;;;27.80;44.80;;;;;;5025668;28;20037;-57
2022/08/15 02:59:30;;;;;;;3.45;2.40;;;27.80;44.90;;;;;;5039239;28;20504;-58
2022/08/15 03:01:57;;;;;;;3.47;3.17;;;27.80;44.90;;;;;;5026953;28;20099;-58
2022/08/15 03:04:25;;;;;;;2.92;2.63;;;27.80;44.90;;;;;;5024759;28;20052;-58
2022/08/15 03:06:53;;;;;;;2.88;2.67;;;27.80;45.00;;;;;;5026263;28;20049;-55
2022/08/15 03:09:20;;;;;;;3.00;2.70;;;27.80;45.00;;;;;;5023336;28;20096;-55
2022/08/15 03:11:59;;;;;;;2.83;2.50;;;27.80;45.00;;;;;;5026084;28;20444;-59
2022/08/15 03:14:36;;;;;;;2.95;2.65;;;27.80;44.90;;;;;;5026089;28;20041;-59
2022/08/15 03:17:09;;;;;;;3.00;2.73;;;27.80;45.00;;;;;;5026378;28;20057;-56
2022/08/15 03:19:41;;;;;;;2.85;2.63;;;27.80;45.00;;;;;;5025599;28;20030;-55
2022/08/15 03:22:10;;;;;;;2.90;2.70;;;27.80;45.00;;;;;;5018585;28;20136;-53
2022/08/15 03:24:42;;;;;;;3.20;2.90;;;27.80;45.10;;;;;;5024115;28;20411;-57
2022/08/15 03:27:08;;;;;;;3.50;2.83;;;27.80;45.10;;;;;;5022115;28;20038;-56
2022/08/15 03:29:34;;;;;;;3.05;2.72;;;27.80;45.10;;;;;;5022162;28;20025;-58
2022/08/15 03:32:08;;;;;;;3.15;2.85;;;27.80;45.10;;;;;;5024677;28;20035;-57
2022/08/15 03:34:34;;;;;;;3.42;3.13;;;27.70;45.10;;;;;;5026578;28;20172;-56
2022/08/15 03:37:01;;;;;;;3.40;3.05;;;27.80;45.20;;;;;;5025183;28;20120;-58
2022/08/15 03:39:27;;;;;;;3.15;2.90;;;27.80;45.20;;;;;;5021526;28;20079;-59
2022/08/15 03:41:53;;;;;;;2.83;2.63;;;27.70;45.10;;;;;;5025113;28;20054;-56
2022/08/15 03:44:19;;;;;;;3.33;3.00;;;27.80;45.20;;;;;;5023366;28;20029;-60
2022/08/15 03:46:44;;;;;;;3.28;2.95;;;27.80;45.20;;;;;;5023827;28;20038;-56
2022/08/15 03:49:13;;;;;;;3.00;2.60;;;27.80;45.30;;;;;;5018399;28;20138;-60
2022/08/15 03:51:40;;;;;;;3.15;2.80;;;27.80;45.30;;;;;;5021842;28;20026;-52
2022/08/15 03:54:12;;;;;;;3.42;3.13;;;27.70;45.20;;;;;;5042154;28;20029;-55
2022/08/15 03:56:38;;;;;;;3.17;2.88;;;27.80;45.40;;;;;;5027117;28;20026;-55
2022/08/15 03:59:08;;;;;;;3.35;2.88;;;27.70;45.30;;;;;;5024036;28;20079;-58
2022/08/15 04:01:39;;;;;;;3.20;2.83;;;27.70;45.30;;;;;;5025242;28;20120;-58
2022/08/15 04:04:05;;;;;;;3.20;2.90;;;27.70;45.40;;;;;;5026625;28;20029;-54
2022/08/15 04:06:45;;;;;;;4.32;3.00;;;27.70;45.40;;;;;;5039313;28;20049;-59
2022/08/15 04:09:11;;;;;;;3.15;2.78;;;27.70;45.40;;;;;;5042242;28;20025;-58
2022/08/15 04:11:39;;;;;;;3.10;2.70;;;27.70;45.40;;;;;;5026664;28;20113;-57
2022/08/15 04:14:10;;;;;;;3.15;2.85;;;27.70;45.40;;;;;;5026498;28;20032;-56
2022/08/15 04:16:36;;;;;;;3.30;3.00;;;27.70;45.50;;;;;;5027748;28;20025;-58
2022/08/15 04:19:03;;;;;;;3.10;2.88;;;27.70;45.50;;;;;;5021834;28;21190;-55
2022/08/15 04:21:32;;;;;;;2.88;2.67;;;27.70;45.50;;;;;;5029351;28;20116;-57
2022/08/15 04:23:58;;;;;;;3.20;2.90;;;27.70;45.60;;;;;;5029316;28;20028;-60
2022/08/15 04:26:24;;;;;;;3.17;2.78;;;27.70;45.60;;;;;;5018965;28;20034;-56
2022/08/15 04:28:50;;;;;;;3.30;3.00;;;27.70;45.60;;;;;;5023850;28;20079;-55
2022/08/15 04:31:20;;;;;;;3.17;2.90;;;27.70;45.60;;;;;;5029522;28;20025;-57
2022/08/15 04:33:48;;;;;;;3.65;3.33;;;27.70;45.60;;;;;;5020406;28;20175;-58
2022/08/15 04:36:17;;;;;;;3.20;2.90;;;27.70;45.70;;;;;;5027837;28;20049;-55
2022/08/15 04:38:45;;;;;;;3.08;2.88;;;27.70;45.70;;;;;;5027651;28;20056;-59
2022/08/15 04:41:12;;;;;;;3.20;2.90;;;27.70;45.70;;;;;;5030070;28;20018;-56
2022/08/15 04:43:40;;;;;;;3.45;3.15;;;27.70;45.80;;;;;;5028385;28;20053;-54
2022/08/15 04:46:09;;;;;;;3.55;3.25;;;27.70;45.80;;;;;;5020381;28;20030;-53
2022/08/15 04:48:37;;;;;;;3.70;3.40;;;27.70;45.80;;;;;;5040885;28;20452;-60
2022/08/15 04:51:04;;;;;;;3.58;3.28;;;27.70;45.90;;;;;;5027551;28;20029;-58
2022/08/15 04:53:33;;;;;;;3.90;3.20;;;27.70;46.60;;;;;;5028163;28;20041;-59
2022/08/15 04:56:02;;;;;;;4.15;3.75;;;27.70;46.00;;;;;;5023920;28;20026;-53
2022/08/15 04:58:32;;;;;;;3.58;3.28;;;27.70;46.10;;;;;;5028805;28;20072;-59
2022/08/15 05:01:02;;;;;;;4.20;3.80;;;27.70;46.20;;;;;;5022342;28;20075;-56
2022/08/15 05:03:33;;;;;;;4.20;3.65;;;27.70;46.30;;;;;;5026433;28;20064;-55
2022/08/15 05:06:03;;;;;;;5.50;4.10;;;27.60;46.30;;;;;;5027194;28;20073;-59
2022/08/15 05:08:31;;;;;;;3.85;3.50;;;27.60;46.30;;;;;;5031568;28;20124;-55
2022/08/15 05:11:12;;;;;;;3.75;3.45;;;27.60;46.40;;;;;;5021382;28;20399;-56
2022/08/15 05:13:40;;;;;;;3.78;3.38;;;27.60;46.50;;;;;;5024589;28;20064;-55
2022/08/15 05:16:08;;;;;;;4.32;3.83;;;27.60;46.50;;;;;;5025187;28;20030;-55
2022/08/15 05:18:41;;;;;;;3.90;3.60;;;27.60;46.60;;;;;;5044230;28;20096;-57
2022/08/15 05:21:11;;;;;;;4.15;3.75;;;27.60;46.60;;;;;;5029210;28;20147;-59
2022/08/15 05:23:39;;;;;;;5.20;3.78;;;27.60;46.70;;;;;;5022119;28;20026;-56
2022/08/15 05:26:09;;;;;;;4.22;3.80;;;27.60;46.70;;;;;;5023373;28;20026;-55
2022/08/15 05:28:38;;;;;;;4.25;3.83;;;27.60;46.80;;;;;;5027103;28;20041;-58
2022/08/15 05:31:08;;;;;;;4.32;3.58;;;27.60;46.90;;;;;;5026471;28;20503;-58
2022/08/15 05:33:36;;;;;;;4.10;3.80;;;27.60;46.90;;;;;;5023139;28;20034;-57
2022/08/15 05:36:04;;;;;;;4.32;3.92;;;27.60;47.60;;;;;;5026369;28;20383;-57
2022/08/15 05:38:40;;;;;;;4.63;4.22;;;27.60;47.00;;;;;;5021662;28;20029;-59
2022/08/15 05:41:40;;;;;;;4.13;3.72;;;27.60;47.00;;;;;;5027783;28;20045;-56
2022/08/15 05:44:19;;;;;;;3.92;3.63;;;27.60;47.10;;;;;;5028373;28;20022;-56
2022/08/15 05:46:59;;;;;;;4.32;3.92;;;27.60;47.10;;;;;;5018044;28;20088;-56
2022/08/15 05:49:51;;;;;;;3.80;3.30;;;27.60;47.10;;;;;;5033487;28;20033;-56
2022/08/15 05:52:34;;;;;;;4.43;4.03;;;27.60;47.10;;;;;;5020643;28;20026;-56
2022/08/15 05:55:30;;;;;;;3.67;3.38;;;27.60;47.10;;;;;;5023482;28;20022;-57
2022/08/15 05:58:12;;;;;;;4.45;3.20;;;27.60;47.10;;;;;;5026307;28;20064;-56
2022/08/15 06:00:46;;;;;;;3.67;3.13;;;27.60;47.10;;;;;;5026698;28;20033;-57
2022/08/15 06:03:25;;;;;;;4.05;2.70;;;27.60;47.00;;;;;;5027048;28;20132;-56
2022/08/15 06:05:56;;;;;;;3.38;2.70;;;27.60;47.00;;;;;;5025458;28;20049;-59
2022/08/15 06:08:26;;;;;;;3.00;2.60;;;27.60;47.00;;;;;;5028406;28;20034;-55
2022/08/15 06:10:58;;;;;;;4.47;2.80;;;27.60;46.90;;;;;;5027878;28;20095;-58
2022/08/15 06:13:29;;;;;;;3.17;2.67;;;27.60;46.90;;;;;;5028147;28;20112;-56
2022/08/15 06:16:04;;;;;;;3.17;2.72;;;27.60;46.80;;;;;;5026471;28;20161;-59
2022/08/15 06:18:35;;;;;;;3.28;2.40;;;27.60;46.70;;;;;;5025333;28;20021;-58
2022/08/15 06:21:15;;;;;;;4.85;2.67;;;27.60;46.70;;;;;;5026443;28;20029;-55
2022/08/15 06:24:05;;;;;;;2.47;2.10;;;27.60;46.70;;;;;;5026308;28;20124;-58
2022/08/15 06:26:43;;;;;;;2.92;2.50;;;27.50;47.20;;;;;;5023761;28;20049;-57
2022/08/15 06:29:12;;;;;;;5.90;2.40;;;27.60;46.60;;;;;;5030183;28;20040;-59
2022/08/15 06:31:52;;;;;;;3.88;2.42;;;27.50;46.60;;;;;;5019048;28;20029;-56
2022/08/15 06:34:27;;;;;;;3.65;2.88;;;27.50;47.20;;;;;;5023850;28;20453;-59
2022/08/15 06:37:19;;;;;;;4.22;2.60;;;27.50;46.50;;;;;;5044954;28;20025;-58
2022/08/15 06:40:16;;;;;;;4.88;2.30;;;27.50;46.40;;;;;;5020312;28;20022;-56
2022/08/15 06:42:44;;;;;;;5.82;2.40;;;27.50;46.40;;;;;;5025048;28;20043;-58
2022/08/15 06:45:21;;;;;;;5.10;2.67;;;27.50;46.30;;;;;;5026647;28;20419;-57
2022/08/15 06:47:50;;;;;;;3.20;2.38;;;27.50;46.30;;;;;;5025048;28;20061;-57
2022/08/15 06:50:20;;;;;;;6.60;2.30;;;27.50;46.30;;;;;;5024165;28;20030;-60
2022/08/15 06:52:55;;;;;;;3.95;2.28;;;27.50;46.20;;;;;;5020665;28;20433;-55
2022/08/15 06:55:23;;;;;;;7.80;2.13;;;27.50;46.20;;;;;;5024755;28;20029;-58
2022/08/15 06:58:12;;;;;;;3.88;2.13;;;27.50;46.10;;;;;;5021932;28;20099;-57
2022/08/15 07:00:45;;;;;;;4.22;1.95;;;27.50;46.00;;;;;;5027283;28;20033;-57
2022/08/15 07:03:25;;;;;;;2.63;1.70;;;27.50;45.90;;;;;;5024278;28;20483;-56
2022/08/15 07:05:57;;;;;;;1.85;1.65;;;27.50;45.90;;;;;;5029070;28;20052;-57
2022/08/15 07:08:39;;;;;;;3.50;2.00;;;27.50;45.80;;;;;;5023783;28;20049;-56
2022/08/15 07:11:23;;;;;;;2.40;1.90;;;27.50;45.70;;;;;;5021877;28;21170;-54
2022/08/15 07:14:12;;;;;;;3.53;1.92;;;27.50;45.70;;;;;;5023540;28;20047;-58
2022/08/15 07:16:44;;;;;;;3.08;1.50;;;27.50;45.60;;;;;;5023341;28;20137;-58
2022/08/15 07:19:10;;;;;;;3.13;1.75;;;27.50;45.50;;;;;;5019212;28;20033;-55
2022/08/15 07:21:50;;;;;;;3.15;1.83;;;27.50;45.50;;;;;;5018147;28;20021;-57
2022/08/15 07:24:15;;;;;;;4.70;1.92;;;27.50;45.40;;;;;;5026528;28;20036;-57
2022/08/15 07:27:12;;;;;;;3.83;1.88;;;27.60;45.40;;;;;;5021510;28;20042;-58
2022/08/15 07:29:55;;;;;;;2.10;1.60;;;27.60;45.40;;;;;;5022558;28;20121;-57
2022/08/15 07:32:42;;;;;;;3.47;1.58;;;27.60;45.40;;;;;;5021173;28;20037;-56
2022/08/15 07:35:12;;;;;;;3.30;1.60;;;27.60;45.30;;;;;;5025155;28;20025;-56
2022/08/15 07:37:51;;;;;;;2.90;1.50;;;27.60;45.30;;;;;;5023475;28;20065;-55
2022/08/15 07:40:26;;;;;;;1.52;1.20;;;27.60;45.30;;;;;;5026288;28;20036;-60
2022/08/15 07:42:54;;;;;;;2.45;1.50;;;27.60;45.20;;;;;;5028413;28;20017;-57
2022/08/15 07:45:34;;;;;;;2.88;1.30;;;27.60;45.20;;;;;;5022854;28;20045;-63
2022/08/15 07:48:20;;;;;;;2.00;1.50;;;27.60;45.80;;;;;;5028684;28;20129;-64
2022/08/15 07:51:03;;;;;;;1.75;1.30;;;27.60;45.20;;;;;;5026507;28;20033;-62
2022/08/15 07:53:30;;;;;;;2.30;1.67;;;27.60;45.20;;;;;;5025283;28;20026;-63
2022/08/15 07:56:13;;;;;;;2.10;1.63;;;27.70;45.20;;;;;;5017912;28;20033;-58
2022/08/15 07:58:42;;;;;;;3.55;1.25;;;27.70;45.10;;;;;;5024178;28;20113;-56
2022/08/15 08:01:27;;;;;;;2.05;1.42;;;27.80;45.00;;;;;;5022303;28;20044;-58
2022/08/15 08:04:00;;;;;;;1.90;1.30;;;27.90;44.80;;;;;;5027067;28;20117;-58
2022/08/15 08:06:39;;;;;;;2.60;1.35;;;28.00;44.70;;;;;;5021809;28;20041;-58
2022/08/15 08:09:10;;;;;;;2.38;1.50;;;28.10;44.50;;;;;;5030270;28;20030;-59
2022/08/15 08:11:56;;;;;;;2.13;1.30;;;28.10;44.40;;;;;;5023913;28;20516;-58
2022/08/15 08:14:43;;;;;;;4.38;1.30;;;28.20;44.30;;;;;;5023601;28;20083;-58
2022/08/15 08:17:21;;;;;;;1.65;1.20;;;28.20;44.10;;;;;;5022399;28;20034;-58
2022/08/15 08:20:08;;;;;;;5.22;1.40;;;28.20;44.10;;;;;;5027008;28;20322;-57
2022/08/15 08:22:56;;;;;;;2.10;1.38;;;28.30;44.00;;;;;;5035449;28;20038;-58
2022/08/15 08:25:25;;;;;;;2.03;1.40;;;28.30;44.00;;;;;;5024065;28;20121;-59
2022/08/15 08:28:19;;;;;;;1.40;1.00;;;28.20;43.90;;;;;;5028098;28;20041;-58
2022/08/15 08:31:02;;;;;;;2.07;1.40;;;28.30;43.90;;;;;;5023875;28;20034;-59
2022/08/15 08:33:28;;;;;;;1.45;1.20;;;28.20;43.80;;;;;;5024022;28;20088;-57
2022/08/15 08:36:06;;;;;;;1.83;1.40;;;28.30;43.90;;;;;;5026781;28;20029;-59
2022/08/15 08:38:50;;;;;;;2.20;1.45;;;28.20;43.80;;;;;;5026645;28;20030;-60
2022/08/15 08:41:25;;;;;;;1.25;1.10;;;28.20;43.80;;;;;;5024313;28;20471;-57
2022/08/15 08:44:27;;;;;;;1.50;1.08;;;28.20;43.80;;;;;;5024794;28;20029;-57
2022/08/15 08:47:24;;;;;;;1.98;1.35;;;28.20;43.80;;;;;;5023140;28;20041;-60
2022/08/15 08:50:01;;;;;;;2.63;1.35;;;28.10;43.80;;;;;;5025079;28;20032;-59
2022/08/15 08:52:32;;;;;;;2.58;1.42;;;28.10;43.80;;;;;;5022283;28;20243;-57
2022/08/15 08:55:10;;;;;;;2.80;1.50;;;28.20;43.90;;;;;;5026156;28;20033;-60
2022/08/15 08:57:46;;;;;;;2.83;1.70;;;28.10;43.90;;;;;;5025351;28;20161;-59
2022/08/15 09:00:18;;;;;;;3.67;1.70;;;28.10;43.90;;;;;;5022508;28;20121;-58
2022/08/15 09:03:41;;;;;;;2.15;1.63;;;28.10;43.90;;;;;;5023424;28;20026;-60
2022/08/15 09:06:11;;;;;;;5.47;1.95;;;28.10;43.90;;;;;;4967810;28;20133;-59
2022/08/15 09:08:51;;;;;;;3.97;2.22;;;28.10;43.90;;;;;;4966281;28;20055;-57
2022/08/15 09:11:27;;;;;;;2.72;2.10;;;28.10;43.90;;;;;;4980776;28;20047;-59
2022/08/15 09:13:58;;;;;;;4.10;2.40;;;28.10;43.90;;;;;;4987757;28;20030;-59
2022/08/15 09:16:34;;;;;;;2.67;2.42;;;28.10;44.00;;;;;;4984616;28;20042;-56
2022/08/15 09:19:03;;;;;;;4.63;3.53;;;28.10;44.00;;;;;;4987717;28;20063;-57
2022/08/15 09:21:31;;;;;;;5.13;3.90;;;28.00;43.90;;;;;;4986453;28;20109;-59
2022/08/15 09:23:58;;;;;;;5.22;4.30;;;28.10;44.00;;;;;;4985130;28;20034;-57
2022/08/15 09:26:41;;;;;;;4.28;3.88;;;28.10;44.00;;;;;;4983917;28;20059;-58
2022/08/15 09:29:21;;;;;;;4.35;3.83;;;28.10;44.00;;;;;;4985073;28;20442;-59
2022/08/15 09:32:27;;;;;;;4.40;3.45;;;28.10;44.10;;;;;;4988690;28;20105;-60
2022/08/15 09:35:28;;;;;;;4.80;4.00;;;28.10;44.10;;;;;;4982394;28;20451;-57
2022/08/15 09:38:14;;;;;;;5.03;4.50;;;28.00;44.10;;;;;;4975518;28;20481;-59
2022/08/15 09:41:20;;;;;;;6.15;4.60;;;28.10;44.20;;;;;;4986066;28;20030;-57
2022/08/15 09:44:11;;;;;;;5.57;4.68;;;28.00;44.10;;;;;;4985707;28;20034;-56
2022/08/15 09:46:52;;;;;;;6.38;5.13;;;28.00;44.20;;;;;;4985970;28;20343;-61
2022/08/15 09:49:48;;;;;;;9.25;5.70;;;28.00;44.30;;;;;;4986697;28;20038;-55
2022/08/15 09:52:34;;;;;;;7.43;5.68;;;28.00;44.30;;;;;;4984111;28;20049;-59
2022/08/15 09:55:22;;;;;;;5.97;5.22;;;28.00;44.30;;;;;;4986140;28;20026;-60
2022/08/15 09:57:52;;;;;;;6.85;5.85;;;28.00;44.40;;;;;;4985524;28;20035;-59
2022/08/15 10:00:24;;;;;;;8.63;6.45;;;28.00;44.40;;;;;;4983273;28;20031;-58
2022/08/15 10:02:52;;;;;;;9.10;6.65;;;28.00;44.40;;;;;;4982110;28;20073;-55
2022/08/15 10:06:00;;;;;;;7.10;6.10;;;28.00;44.50;;;;;;5000990;28;20073;-59
2022/08/15 10:08:54;;;;;;;7.63;6.82;;;28.00;44.50;;;;;;5015140;28;20562;-54
2022/08/15 10:11:27;;;;;;;;;;;28.00;44.50;;;;;;5023596;28;20029;-54
2022/08/15 10:14:06;;;;;;;7.97;6.25;;;28.00;44.60;;;;;;5024909;28;19913;-59
2022/08/15 10:16:39;;;;;;;7.43;6.65;;;28.00;44.60;;;;;;5029535;28;20025;-55
2022/08/15 10:19:26;;;;;;;8.38;6.95;;;28.00;44.70;;;;;;5021753;28;20463;-55
2022/08/15 10:21:55;;;;;;;7.72;6.80;;;28.00;44.70;;;;;;5021930;28;20025;-58
2022/08/15 10:24:36;;;;;;;8.27;6.78;;;28.00;44.70;;;;;;5025826;28;20453;-54
2022/08/15 10:27:23;;;;;;;7.68;6.70;;;28.00;44.70;;;;;;5032087;28;20037;-60
2022/08/15 10:30:08;;;;;;;8.13;7.13;;;28.00;44.80;;;;;;5028894;28;20404;-54
2022/08/15 10:32:41;;;;;;;7.95;7.13;;;28.00;44.80;;;;;;5018103;28;20117;-56
2022/08/15 10:35:31;;;;;;;8.60;7.78;;;28.00;44.90;;;;;;5016379;28;20060;-55
2022/08/15 10:38:04;;;;;;;10.00;8.38;;;28.00;44.90;;;;;;5015742;28;20029;-57
2022/08/15 10:40:53;;;;;;;9.93;8.93;;;28.10;45.00;;;;;;5026600;28;20455;-55
2022/08/15 10:43:46;;;;;;;9.65;8.75;;;28.00;45.10;;;;;;5033309;28;20049;-59
2022/08/15 10:46:23;;;;;;;9.68;8.73;;;28.10;45.20;;;;;;5034107;28;20025;-56
2022/08/15 10:49:26;;;;;;;10.00;8.63;;;28.00;45.20;;;;;;5025118;28;20041;-57
2022/08/15 10:51:55;;;;;;;10.38;9.23;;;28.10;45.30;;;;;;5022318;28;20105;-59
2022/08/15 10:54:43;;;;;;;11.55;10.20;;;28.10;45.40;;;;;;5031975;28;20040;-54
2022/08/15 10:57:13;;;;;;;10.30;9.18;;;28.10;45.50;;;;;;5019350;28;20084;-56
2022/08/15 10:59:45;;;;;;;12.35;11.10;;;28.00;45.50;;;;;;5029842;28;20063;-57
2022/08/15 11:02:41;;;;;;;11.48;10.38;;;28.10;45.60;;;;;;5022595;28;20073;-56
2022/08/15 11:05:14;;;;;;;11.30;10.20;;;28.10;45.60;;;;;;5018345;28;20049;-60
2022/08/15 11:07:51;;;;;;;12.33;11.00;;;28.10;45.70;;;;;;5023239;28;20041;-62
2022/08/15 11:10:20;;;;;;;12.45;10.98;;;28.10;45.80;;;;;;5032424;28;20357;-60
2022/08/15 11:12:52;;;;;;;13.15;10.93;;;28.10;45.90;;;;;;5027630;28;20182;-58
2022/08/15 11:15:33;;;;;;;12.25;11.05;;;28.10;45.90;;;;;;5020589;28;20469;-54
2022/08/15 11:18:05;;;;;;;12.50;11.27;;;28.20;46.00;;;;;;5016804;28;20441;-55
2022/08/15 11:20:44;;;;;;;12.77;11.43;;;28.20;46.10;;;;;;5015292;28;20029;-56
2022/08/15 11:23:11;;;;;;;12.18;10.93;;;28.20;46.10;;;;;;5030706;28;20384;-53
2022/08/15 11:25:40;;;;;;;16.75;15.05;;;28.20;46.10;;;;;;5032929;28;20040;-56
2022/08/15 11:28:13;;;;;;;20.23;18.02;;;28.20;46.20;;;;;;5021261;28;20090;-52
2022/08/15 11:30:41;;;;;;;23.25;20.83;;;28.20;46.40;;;;;;5035022;28;20052;-51
2022/08/15 11:33:41;;;;;;;24.85;20.42;;;28.30;46.60;;;;;;5029609;28;20021;-55
2022/08/15 11:36:27;;;;;;;24.80;22.35;;;28.20;46.60;;;;;;5026896;28;20075;-51
2022/08/15 11:39:02;;;;;;;24.50;21.95;;;28.30;46.80;;;;;;5023343;28;20433;-53
2022/08/15 11:41:31;;;;;;;24.23;21.77;;;28.20;46.80;;;;;;5029864;28;20065;-55
2022/08/15 11:44:00;;;;;;;24.85;22.05;;;28.20;46.80;;;;;;5025281;28;20064;-53
2022/08/15 11:46:27;;;;;;;24.67;22.25;;;28.20;46.90;;;;;;5025931;28;20068;-56
2022/08/15 11:49:11;;;;;;;22.85;20.42;;;28.30;47.00;;;;;;5033373;28;20061;-53
2022/08/15 11:51:43;;;;;;;23.60;21.10;;;28.30;47.00;;;;;;5019228;28;20033;-54
2022/08/15 11:54:12;;;;;;;24.08;21.52;;;28.30;47.10;;;;;;5029295;28;20930;-52
2022/08/15 11:56:55;;;;;;;23.52;21.13;;;28.30;47.10;;;;;;5031168;28;20352;-55
2022/08/15 11:59:31;;;;;;;23.83;21.48;;;28.30;47.20;;;;;;5034339;28;20038;-56
2022/08/15 12:02:11;;;;;;;22.17;19.48;;;28.30;47.20;;;;;;5014961;28;20041;-56
2022/08/15 12:04:43;;;;;;;21.60;19.30;;;28.30;47.30;;;;;;5014770;28;20068;-57
2022/08/15 12:07:11;;;;;;;21.65;18.77;;;28.30;47.20;;;;;;5031548;28;20037;-60
2022/08/15 12:09:37;;;;;;;19.02;17.13;;;28.30;47.30;;;;;;5021564;28;20030;-54
2022/08/15 12:12:03;;;;;;;16.27;14.57;;;28.30;47.30;;;;;;5015588;28;20022;-55
2022/08/15 12:14:30;;;;;;;17.52;15.70;;;28.40;47.40;;;;;;5023978;28;20034;-59
2022/08/15 12:17:05;;;;;;;16.77;15.07;;;28.40;47.60;;;;;;5020913;28;20021;-58
2022/08/15 12:19:37;;;;;;;17.63;15.68;;;28.40;47.70;;;;;;5023730;28;20096;-59
2022/08/15 12:22:13;;;;;;;21.42;15.05;;;28.50;47.70;;;;;;5028805;28;20056;-58
2022/08/15 12:24:43;;;;;;;15.77;14.18;;;28.50;47.60;;;;;;5025344;28;20113;-57
2022/08/15 12:27:10;;;;;;;16.08;13.10;;;28.50;47.60;;;;;;5022092;28;20369;-62
2022/08/15 12:29:37;;;;;;;15.65;14.05;;;28.50;47.50;;;;;;5018569;28;20044;-59
2022/08/15 12:32:12;;;;;;;15.38;13.77;;;28.50;47.60;;;;;;5023372;28;20033;-55
2022/08/15 12:34:54;;;;;;;18.55;16.27;;;28.50;47.70;;;;;;5034205;28;20060;-58
2022/08/15 12:37:26;;;;;;;21.25;19.05;;;28.50;47.80;;;;;;5022903;28;20433;-55
2022/08/15 12:39:57;;;;;;;18.73;16.83;;;28.50;47.90;;;;;;5026257;28;20388;-64
2022/08/15 12:42:30;;;;;;;19.98;17.67;;;28.50;47.80;;;;;;5030177;28;20042;-58
2022/08/15 12:45:02;;;;;;;21.65;18.30;;;28.50;47.90;;;;;;5030694;28;20120;-57
2022/08/15 12:47:31;;;;;;;22.67;20.38;;;28.50;47.90;;;;;;5028683;28;20041;-57
2022/08/15 12:49:58;;;;;;;24.27;21.75;;;28.60;48.00;;;;;;5028362;28;20029;-56
2022/08/15 12:52:25;;;;;;;24.80;22.27;;;28.50;47.90;;;;;;5027814;28;20025;-58
2022/08/15 12:54:52;;;;;;;24.83;22.25;;;28.50;48.00;;;;;;5028376;28;20056;-57
2022/08/15 12:57:19;;;;;;;25.05;22.40;;;28.50;48.00;;;;;;5028252;28;20133;-53
2022/08/15 12:59:45;;;;;;;23.80;21.38;;;28.50;48.00;;;;;;5019134;28;20034;-55
2022/08/15 13:02:12;;;;;;;25.38;22.75;;;28.50;48.00;;;;;;5037455;28;20440;-58
2022/08/15 13:04:50;;;;;;;25.80;23.20;;;28.50;48.00;;;;;;5036923;28;20363;-56
2022/08/15 13:07:18;;;;;;;26.30;23.50;;;28.50;48.10;;;;;;5032866;28;20132;-57
2022/08/15 13:09:45;;;;;;;25.67;23.05;;;28.50;48.10;;;;;;5034629;28;20074;-55
2022/08/15 13:12:12;;;;;;;28.15;25.15;;;28.50;48.10;;;;;;5017573;28;20084;-58
2022/08/15 13:14:38;;;;;;;22.30;19.90;;;28.50;48.10;;;;;;5029762;28;20030;-60
2022/08/15 13:17:05;;;;;;;20.10;18.20;;;28.50;48.10;;;;;;5023730;28;20021;-58
2022/08/15 13:25:14;;;;;;;20.65;18.48;;;28.60;48.00;;;;;;5029308;28;20048;-57
2022/08/15 13:27:40;;;;;;;24.30;21.80;;;28.60;47.90;;;;;;5025212;28;20041;-58